Eviacement IV — SXKG — position and weather

sailwx.info

Track history (hours):
 
Tides and Currents Weather Stations Pressure Air Temp Water Temp Dewpoint Dewpoint Depression Visibility Wind Speed Wind Dir Waves Ship Positions

Eviacement IV

Last reported at 2014-Apr-04 07:33 UTC. Time now 2014-Jul-29 04:42 UTC.
Position N 37°57' E 023°33'.
Warning: this ship's position is months out of date.

Length 90 m; draft 4.4 m.

Type: Cargo ship. MMSI: 239776000.

Date/timePositionNaut miles runAvg speedWind from/ knotsBaromVisibWave heightAir tempDewpointWater temp
2014-Apr-04 07:33N 37°57' E 023°33'1010.2
2014-Apr-04 06:33N 37°49' E 023°41'1311.6
2014-Apr-04 05:25N 37°37' E 023°48'1311.6
2014-Apr-04 04:16N 37°25' E 023°54'911.3
2014-Apr-04 03:28N 37°16' E 023°57'1011.3
2014-Apr-04 02:33N 37°06' E 024°02'2311.4
2014-Apr-04 00:33N 36°45' E 024°11'1111.4
2014-Apr-03 23:33N 36°35' E 024°18'1111.0
2014-Apr-03 22:33N 36°25' E 024°25'1110.8
2014-Apr-03 21:33N 36°16' E 024°32'1010.5
2014-Apr-03 20:33N 36°07' E 024°38'1010.4
2014-Apr-03 19:33N 35°58' E 024°44'1110.7
2014-Apr-03 18:33N 35°48' E 024°50'1110.8
2014-Apr-03 17:33N 35°38' E 024°56'1111.0
2014-Apr-03 16:33N 35°29' E 025°02'8 6.7
2014-Apr-03 15:23N 35°21' E 025°03'0 0.0
2014-Apr-03 14:08N 35°21' E 025°03'0 0.0
2014-Apr-03 13:32N 35°21' E 025°03'0 0.0
2014-Apr-03 12:32N 35°21' E 025°03'0 0.0
2014-Apr-03 11:32N 35°21' E 025°03'0 0.0
2014-Apr-03 10:32N 35°21' E 025°03'0 0.0
2014-Apr-03 09:20N 35°21' E 025°03'0 0.0
2014-Apr-03 07:16N 35°21' E 025°03'0 0.0
2014-Apr-03 04:29N 35°21' E 025°03'24 7.9
2014-Apr-03 01:31N 35°29' E 025°30'1010.2
2014-Apr-03 00:33N 35°32' E 025°42'2410.1
2014-Apr-02 22:10N 35°40' E 026°10'610.4
2014-Apr-02 21:33N 35°42' E 026°17'1010.3
2014-Apr-02 20:33N 35°45' E 026°29'10 9.6
2014-Apr-02 19:33N 35°48' E 026°40'10 9.9
2014-Apr-02 18:33N 35°52' E 026°52'1010.0
2014-Apr-02 17:33N 35°58' E 027°01'10 9.8
2014-Apr-02 16:33N 36°05' E 027°10'  
2014-Mar-26 23:20N 37°41' E 026°33'48 1.9
2014-Mar-25 22:34N 36°59' E 026°04'10 9.7
2014-Mar-25 21:33N 37°02' E 025°53'9 9.5
2014-Mar-25 20:34N 37°07' E 025°43'11 9.3
2014-Mar-25 19:21N 37°15' E 025°33'8 9.7
2014-Mar-25 18:34N 37°15' E 025°23'10 9.7
2014-Mar-25 17:34N 37°16' E 025°11'10 9.7
2014-Mar-25 16:33N 37°18' E 024°59'10 9.7
2014-Mar-25 15:33N 37°20' E 024°47'10 9.8
2014-Mar-25 14:33N 37°25' E 024°36'10 9.8
2014-Mar-25 13:32N 37°30' E 024°25'13 9.4
2014-Mar-25 12:09N 37°32' E 024°09'20 9.8
2014-Mar-25 10:04N 37°39' E 023°45'5 9.2
2014-Mar-25 09:33N 37°42' E 023°40'10 9.8
2014-Mar-25 08:33N 37°51' E 023°36'  
Track history (hours):
 
Tides and Currents Weather Stations Pressure Air Temp Water Temp Dewpoint Dewpoint Depression Visibility Wind Speed Wind Dir Waves Ship Positions

Eviacement IV

Last reported at 2014-Apr-04 07:33 UTC. Time now 2014-Jul-29 04:42 UTC.
Position N 37°57' E 023°33'.
Warning: this ship's position is months out of date.

Length 90 m; draft 4.4 m.

Type: Cargo ship. MMSI: 239776000.

Date/timePositionNaut miles runAvg speedWind from/ knotsBaromVisibWave heightAir tempDewpointWater temp
2014-Apr-04 07:33N 37°57' E 023°33'1010.2
2014-Apr-04 06:33N 37°49' E 023°41'1311.6
2014-Apr-04 05:25N 37°37' E 023°48'1311.6
2014-Apr-04 04:16N 37°25' E 023°54'911.3
2014-Apr-04 03:28N 37°16' E 023°57'1011.3
2014-Apr-04 02:33N 37°06' E 024°02'2311.4
2014-Apr-04 00:33N 36°45' E 024°11'1111.4
2014-Apr-03 23:33N 36°35' E 024°18'1111.0
2014-Apr-03 22:33N 36°25' E 024°25'1110.8
2014-Apr-03 21:33N 36°16' E 024°32'1010.5
2014-Apr-03 20:33N 36°07' E 024°38'1010.4
2014-Apr-03 19:33N 35°58' E 024°44'1110.7
2014-Apr-03 18:33N 35°48' E 024°50'1110.8
2014-Apr-03 17:33N 35°38' E 024°56'1111.0
2014-Apr-03 16:33N 35°29' E 025°02'8 6.7
2014-Apr-03 15:23N 35°21' E 025°03'0 0.0
2014-Apr-03 14:08N 35°21' E 025°03'0 0.0
2014-Apr-03 13:32N 35°21' E 025°03'0 0.0
2014-Apr-03 12:32N 35°21' E 025°03'0 0.0
2014-Apr-03 11:32N 35°21' E 025°03'0 0.0
2014-Apr-03 10:32N 35°21' E 025°03'0 0.0
2014-Apr-03 09:20N 35°21' E 025°03'0 0.0
2014-Apr-03 07:16N 35°21' E 025°03'0 0.0
2014-Apr-03 04:29N 35°21' E 025°03'24 7.9
2014-Apr-03 01:31N 35°29' E 025°30'1010.2
2014-Apr-03 00:33N 35°32' E 025°42'2410.1
2014-Apr-02 22:10N 35°40' E 026°10'610.4
2014-Apr-02 21:33N 35°42' E 026°17'1010.3
2014-Apr-02 20:33N 35°45' E 026°29'10 9.6
2014-Apr-02 19:33N 35°48' E 026°40'10 9.9
2014-Apr-02 18:33N 35°52' E 026°52'1010.0
2014-Apr-02 17:33N 35°58' E 027°01'10 9.8
2014-Apr-02 16:33N 36°05' E 027°10'  
2014-Mar-26 23:20N 37°41' E 026°33'48 1.9
2014-Mar-25 22:34N 36°59' E 026°04'10 9.7
2014-Mar-25 21:33N 37°02' E 025°53'9 9.5
2014-Mar-25 20:34N 37°07' E 025°43'11 9.3
2014-Mar-25 19:21N 37°15' E 025°33'8 9.7
2014-Mar-25 18:34N 37°15' E 025°23'10 9.7
2014-Mar-25 17:34N 37°16' E 025°11'10 9.7
2014-Mar-25 16:33N 37°18' E 024°59'10 9.7
2014-Mar-25 15:33N 37°20' E 024°47'10 9.8
2014-Mar-25 14:33N 37°25' E 024°36'10 9.8
2014-Mar-25 13:32N 37°30' E 024°25'13 9.4
2014-Mar-25 12:09N 37°32' E 024°09'20 9.8
2014-Mar-25 10:04N 37°39' E 023°45'5 9.2
2014-Mar-25 09:33N 37°42' E 023°40'10 9.8
2014-Mar-25 08:33N 37°51' E 023°36'  

Dump ship's entire track history